• Join FlightAware (Why Join?)
  • Login
  • US Flag 
02:35PM EDT


 

Airport Tracker/Info


-or-


 

Live Flight TrackerFlight Track Log ✈ DAL1095 ✈ 15-Nov-2013 ✈ KATL - KCLT

Flight Track Log - Related Links

Times and Time Zones

All times are in EST time to prevent confusion due to time zone crossing. See the DAL1095 flight status page for this flight to view local times or setup timezone preferences in your user account.

Time Position Orientation Groundspeed Altitude Reporting Facility
EST Latitude Longitude Course Direction KTS MPH feet Rate Location/Type
11:25AM 33.6311 -84.3481 77° East 457 526 3,200  Level Atlanta Center
11:26AM 33.6314 -84.2583 90° East 352 405 6,200 2,940 Climbing Atlanta Center
11:27AM 33.9610 -83.7403 64° Northeast  Level Estimated
11:27AM 33.6333 -84.1711 88° East 292 336 9,100  Level Atlanta Center
11:28AM 33.9326 -83.5453 100° East  Level FlightAware Approximate
11:28AM 33.6356 -84.0661 89° East 300 345 11,100  Level Atlanta Center
11:29AM 34.0187 -83.3766 64° Northeast  Level Estimated
11:29AM 33.6419 -83.9464 86° East 334 384 14,000  Level Atlanta Center
11:30AM 34.0560 -83.1836 77° East  Level FlightAware Approximate
11:30AM 33.6500 -83.8242 85° East 356 410 16,100  Level Atlanta Center
11:31AM 33.6561 -83.6919 87° East 376 433 17,900 1,800 Climbing Atlanta Center
11:32AM 33.6931 -83.5644 71° East 411 473 19,700 1,620 Climbing Atlanta Center
11:33AM 33.7447 -83.4317 65° Northeast 423 487 21,200 1,200 Climbing Atlanta Center
11:34AM 33.8003 -83.2964 64° Northeast 439 505 22,100 900 Climbing Atlanta Center
11:35AM 33.8600 -83.1483 64° Northeast 472 543 23,000 1,380 Climbing Atlanta Center
11:36AM 33.9211 -82.9850 66° East 483 556 24,900 960 Climbing Atlanta Center
11:37AM 33.9825 -82.8339 64° Northeast 491 565 25,000 -240 Climbing Atlanta Center
11:38AM 34.0414 -82.6875 64° Northeast 486 559 24,500 -540 Descending Atlanta Center
11:39AM 34.0981 -82.5386 65° Northeast 486 559 24,000 -300 Descending Atlanta Center
11:40AM 34.1528 -82.4122 62° Northeast 480 552 24,000  Level Atlanta Center
11:41AM 34.2114 -82.2653 64° Northeast 474 545 24,000 -720 Level Atlanta Center
11:42AM 34.2742 -82.1308 61° Northeast 469 540 22,600 -1,680 Descending Atlanta Center
11:43AM 34.3558 -82.0258 47° Northeast 456 525 20,700 -2,100 Descending Atlanta Center
11:44AM 34.4356 -81.9283 45° Northeast 426 490 18,500 -1,620 Descending Atlanta Center
11:45AM 34.5111 -81.8281 48° Northeast 406 467 17,500 -900 Descending Atlanta Center
11:46AM 34.5783 -81.7406 47° Northeast 380 437 16,800 -780 Descending Atlanta Center
11:47AM 34.6394 -81.6581 48° Northeast 344 396 16,000 -1,500 Descending Atlanta Center
11:48AM 34.6878 -81.5683 57° Northeast 327 376 13,900 -1,560 Descending Atlanta Center
11:49AM 34.6339 -81.4942 131° Southeast 249 287 12,900 -540 Descending Atlanta Center
11:50AM 34.5533 -81.5319 201° Southwest 161 185 12,900  Level Atlanta Center
11:51AM 34.5047 -81.6039 231° Southwest 191 220 12,900  Level Atlanta Center
11:52AM 34.4497 -81.6683 224° Southwest 239 275 12,900  Level Atlanta Center
11:53AM 34.4411 -81.7619 264° West 256 295 12,900  Level Atlanta Center
11:54AM 34.5150 -81.8103 332° Northwest 220 253 12,900  Level Atlanta Center
11:55AM 34.5825 -81.7378 41° Northeast 202 232 12,900  Level Atlanta Center
11:56AM 34.6478 -81.6553 46° Northeast 254 292 12,900  Level Atlanta Center
11:57AM 34.6750 -81.5583 71° East 280 322 12,900  Level Atlanta Center
11:58AM 34.6056 -81.5278 160° South 174 200 12,900  Level Atlanta Center
11:58AM 34.5650 -81.5944 234° Southwest 274 315 13,000  Climbing Atlanta Center
11:59AM 34.5631 -81.5972 230° Southwest 135 155 12,900 -420 Descending Atlanta Center
11:59AM 34.5847 -81.6419 300° West 307 353 12,800 -900 Descending Atlanta Center
12:00PM 34.6286 -81.6456 356° North 137 158 12,000 -660 Descending Atlanta Center
12:00PM 34.6822 -81.6114 28° Northeast 351 404 12,100 -120 Climbing Atlanta Center
12:01PM 34.7067 -81.5828 44° Northeast 208 239 11,900  Descending Atlanta Center
12:01PM 34.7453 -81.5261 50° Northeast 342 394 12,100  Climbing Atlanta Center
12:02PM 34.7675 -81.4950 49° Northeast 257 296 11,900  Descending Atlanta Center
12:02PM 34.8064 -81.4508 43° Northeast 337 388 12,100  Climbing Atlanta Center
12:03PM 34.8328 -81.4147 48° Northeast 299 344 11,900  Descending Atlanta Center
12:03PM 34.8672 -81.3681 48° Northeast 331 381 12,100  Climbing Atlanta Center
12:04PM 34.8978 -81.3342 42° Northeast 316 364 11,900 -600 Descending Atlanta Center
12:04PM 34.9322 -81.2872 48° Northeast 331 381 11,500 -840 Descending Atlanta Center
12:05PM 34.9606 -81.2508 46° Northeast 322 371 11,100 -1,020 Descending Atlanta Center
12:05PM 34.9992 -81.2014 46° Northeast 323 372 10,500 -900 Descending Atlanta Center
12:06PM 35.0233 -81.1753 41° Northeast 327 376 10,200 -540 Descending Atlanta Center
12:06PM 35.0578 -81.1233 51° Northeast 318 366 10,000 -540 Descending Atlanta Center
12:07PM 35.0842 -81.0997 36° Northeast 320 368 9,700 -840 Descending Atlanta Center
12:07PM 35.1292 -81.0625 34° Northeast 315 362 9,200 -600 Descending Atlanta Center
12:08PM 35.1586 -81.0639 358° North 298 343 9,100 -240 Descending Atlanta Center
12:08PM 35.2131 -81.0722 353° North 306 352 9,000 -600 Descending Atlanta Center
12:09PM 35.2903 -81.0794 356° North 258 297 8,200 -900 Descending Atlanta Center
12:10PM 35.3614 -81.0847 357° North 234 269 7,200 -1,020 Descending Atlanta Center
12:11PM 35.4242 -81.0900 356° North 215 247 6,200 -1,020 Descending Atlanta Center
12:12PM 35.4847 -81.0931 358° North 220 253 5,200 -600 Descending Atlanta Center
12:13PM 35.5475 -81.1008 354° North 223 257 5,100 -120 Descending Atlanta Center
12:14PM 35.6139 -81.0806 14° North 233 268 5,000  Descending Atlanta Center
12:15PM 35.6397 -81.0364 54° Northeast 194 223 5,100  Climbing Atlanta Center
12:16PM 35.6014 -81.0019 144° Southeast 165 190 5,100  Level Atlanta Center
12:17PM 35.5575 -81.0008 179° South 154 177 5,100  Level Atlanta Center
12:18PM 35.5075 -80.9953 175° South 157 181 5,100  Level Atlanta Center
12:19PM 35.4656 -80.9892 173° South 158 182 5,100 -180 Level Atlanta Center
12:21PM 35.4217 -80.9881 179° South 159 183 4,800 -660 Descending Atlanta Center
12:22PM 35.3736 -80.9847 177° South 159 183 3,800 -900 Descending Atlanta Center
12:23PM 35.3297 -80.9789 174° South 156 180 3,000 -840 Descending Atlanta Center
12:24PM 35.2919 -80.9750 175° South 141 162 2,200 -840 Descending Atlanta Center
12:25PM 35.2481 -80.9717 176° South 146 168 1,300 -900 Descending Atlanta Center